Information Last Ob Photographs Meteogram Network Table Neighbors Monthly Summaries Observation History Wind Roses Custom Wind Roses Data Calendar Download

15 October 2018 Observation History, [DSM] DES MOINES, timezone: America/Chicago

Select Date:
Show MetarsPrevious Day
Time Wind
(mph)
Vis.
(mi.)
Sky Cond.
(100s ft)
Present Wx Temperature (ºF) Relative
Humidity
Pressure Precipitation (in.)
Air Dwpt Feels Like 6 hour altimeter
(in.)
sea level
(mb)
1 hr 3 hr 6 hr
Max.Min.
10:54 AMWNW 1410 FEW032
392631 60% 30.340
KDSM 151554Z 29012KT 10SM FEW032 04/M03 A3034 RMK AO2 SLP282 T00391033
10:50 AMWNW 1510 CLR
% 30.34
KDSM 151550Z AUTO 30013G00KT 10SM CLR 04/M03 A3034 RMK T00401030 MADISHF
10:45 AMNW 1310 CLR
% 30.34
KDSM 151545Z AUTO 31011G00KT 10SM CLR 04/M03 A3034 RMK T00401030 MADISHF
10:40 AMNW 1510 CLR
% 30.34
KDSM 151540Z AUTO 31013G00KT 10SM CLR 04/M03 A3034 RMK T00401030 MADISHF
10:35 AMWNW 1510 CLR
% 30.34
KDSM 151535Z AUTO 30013G00KT 10SM CLR 04/M03 A3034 RMK T00401030 MADISHF
10:30 AMWNW 1510 CLR
% 30.34
KDSM 151530Z AUTO 30013G00KT 10SM CLR 04/M03 A3034 RMK T00401030 MADISHF
10:25 AMWNW 1310 CLR
% 30.34
KDSM 151525Z AUTO 29011G00KT 10SM CLR 03/M04 A3034 RMK T00301040 MADISHF
10:20 AMWNW 1410 CLR
% 30.34
KDSM 151520Z AUTO 30012G00KT 10SM CLR 04/M04 A3034 RMK T00401040 MADISHF
10:15 AMNW 1410 CLR
% 30.34
KDSM 151515Z AUTO 32012G00KT 10SM CLR 03/M03 A3034 RMK T00301030 MADISHF
10:10 AMWNW 14G 2010 CLR
% 30.33
KDSM 151510Z AUTO 30012G17KT 10SM CLR 03/M03 A3032 RMK T00301030 MADISHF
10:05 AMWNW 1510 CLR
% 30.33
KDSM 151505Z AUTO 30013G00KT 10SM CLR 03/M03 A3032 RMK T00301030 MADISHF
10:00 AMNW 1610 CLR
% 30.33
KDSM 151500Z AUTO 31014G00KT 10SM CLR 03/M03 A3032 RMK T00301030 MADISHF
9:54 AMWNW 1410 FEW032
382730 64% 30.330
KDSM 151454Z 30012KT 10SM FEW032 03/M03 A3033 RMK AO2 SLP280 T00331028 52015
9:50 AMWNW 1410 FEW032
% 30.33
KDSM 151450Z AUTO 30012G00KT 10SM FEW032 03/M03 A3032 RMK T00301030 MADISHF
9:45 AMWNW 1610 CLR
% 30.33
KDSM 151445Z AUTO 30014G00KT 10SM CLR 03/M03 A3032 RMK T00301030 MADISHF
9:40 AMNW 1510 CLR
% 30.33
KDSM 151440Z AUTO 31013G00KT 10SM CLR 03/M03 A3032 RMK T00301030 MADISHF
9:35 AMWNW 1510 CLR
% 30.32
KDSM 151435Z AUTO 30013G00KT 10SM CLR 03/M03 A3031 RMK T00301030 MADISHF
9:30 AMWNW 1310 FEW033
% 30.32
KDSM 151430Z AUTO 30011G00KT 10SM FEW033 03/M03 A3031 RMK T00301030 MADISHF
9:25 AMWNW 1310 SCT033
% 30.32
KDSM 151425Z AUTO 30011G00KT 10SM SCT033 03/M02 A3031 RMK T00301020 MADISHF
9:20 AMWNW 1010 SCT033
% 30.32
KDSM 151420Z AUTO 29009G00KT 10SM SCT033 02/M03 A3031 RMK T00201030 MADISHF
9:15 AMNW 1410 BKN033
% 30.32
KDSM 151415Z AUTO 31012G00KT 10SM BKN033 02/M03 A3031 RMK T00201030 MADISHF
9:10 AMNW 1210 BKN033
% 30.32
KDSM 151410Z AUTO 31010G00KT 10SM BKN033 02/M03 A3031 RMK T00201030 MADISHF
9:05 AMNW 1210 OVC033
% 30.32
KDSM 151405Z AUTO 31010G00KT 10SM OVC033 02/M03 A3031 RMK T00201030 MADISHF
9:00 AMNW 910 OVC033
% 30.32
KDSM 151400Z AUTO 31008G00KT 10SM OVC033 02/M03 A3031 RMK T00201030 MADISHF
8:55 AMNW 1210 OVC033
% 30.32
KDSM 151355Z AUTO 31010G00KT 10SM OVC033 02/M03 A3031 RMK T00201030 MADISHF
8:54 AMNW 1010 BKN033
352727 72% 30.320
KDSM 151354Z 31009KT 10SM BKN033 02/M03 A3032 RMK AO2 SLP276 T00171028
8:50 AMNW 910 OVC033
% 30.32
KDSM 151350Z AUTO 31008G00KT 10SM OVC033 02/M03 A3031 RMK T00201030 MADISHF
8:45 AMNW 1410 OVC033
% 30.32
KDSM 151345Z AUTO 31012G00KT 10SM OVC033 02/M03 A3031 RMK T00201030 MADISHF
8:40 AMNNW 1410 OVC033
% 30.31
KDSM 151340Z AUTO 33012G00KT 10SM OVC033 02/M03 A3030 RMK T00201030 MADISHF
8:35 AMNW 1310 OVC033
% 30.31
KDSM 151335Z AUTO 31011G00KT 10SM OVC033 02/M03 A3030 RMK T00201030 MADISHF
8:30 AMNW 910 OVC033
% 30.31
KDSM 151330Z AUTO 31008G00KT 10SM OVC033 02/M03 A3030 RMK T00201030 MADISHF
8:25 AMNW 1210 OVC033
% 30.31
KDSM 151325Z AUTO 31010G00KT 10SM OVC033 02/M03 A3030 RMK T00201030 MADISHF
8:20 AMNW 1310 OVC033
% 30.31
KDSM 151320Z AUTO 32011G00KT 10SM OVC033 01/M03 A3030 RMK T00101030 MADISHF
8:15 AMWNW 1010 OVC033
% 30.31
KDSM 151315Z AUTO 30009G00KT 10SM OVC033 01/M03 A3030 RMK T00101030 MADISHF
8:10 AMWNW 710 OVC033
% 30.3
KDSM 151310Z AUTO 30006G00KT 10SM OVC033 01/M03 A3029 RMK T00101030 MADISHF
8:05 AMWNW 910 OVC033
% 30.3
KDSM 151305Z AUTO 30008G00KT 10SM OVC033 01/M03 A3029 RMK T00101030 MADISHF
8:00 AMWNW 1010 OVC033
% 30.3
KDSM 151300Z AUTO 30009G00KT 10SM OVC033 01/M03 A3029 RMK T00101030 MADISHF
7:55 AMNW 1210 OVC033
% 30.3
KDSM 151255Z AUTO 31010G00KT 10SM OVC033 01/M03 A3029 RMK T00101030 MADISHF
7:54 AMNW 1010 OVC034
342726 75% 30.30
KDSM 151254Z 31009KT 10SM OVC034 01/M03 A3030 RMK AO2 SLP268 T00111028
7:50 AMNW 910 OVC033
% 30.29
KDSM 151250Z AUTO 31008G00KT 10SM OVC033 01/M03 A3029 RMK T00101030 MADISHF
7:45 AMNW 910 OVC033
% 30.29
KDSM 151245Z AUTO 31008G00KT 10SM OVC033 01/M03 A3029 RMK T00101030 MADISHF
7:40 AMNW 1010 OVC033
% 30.29
KDSM 151240Z AUTO 31009G00KT 10SM OVC033 01/M03 A3029 RMK T00101030 MADISHF
7:35 AMNW 910 OVC033
% 30.29
KDSM 151235Z AUTO 31008G00KT 10SM OVC033 01/M03 A3029 RMK T00101030 MADISHF
7:30 AMNW 910 OVC033
% 30.29
KDSM 151230Z AUTO 31008G00KT 10SM OVC033 01/M02 A3029 RMK T00101020 MADISHF
7:25 AMNW 810 OVC033
% 30.29
KDSM 151225Z AUTO 31007G00KT 10SM OVC033 01/M02 A3029 RMK T00101020 MADISHF
7:20 AMNW 710 OVC033
% 30.29
KDSM 151220Z AUTO 31006G00KT 10SM OVC033 01/M02 A3029 RMK T00101020 MADISHF
7:15 AMNW 810 OVC036
% 30.29
KDSM 151215Z AUTO 31007G00KT 10SM OVC036 01/M02 A3029 RMK T00101020 MADISHF
7:10 AMWNW 610 OVC036
% 30.29
KDSM 151210Z AUTO 30005G00KT 10SM OVC036 01/M02 A3029 RMK T00101020 MADISHF
7:05 AMNW 710 OVC036
% 30.29
KDSM 151205Z AUTO 31006G00KT 10SM OVC036 00/M02 A3029 RMK T00001020 MADISHF
7:00 AMWNW 610 OVC036
% 30.29
KDSM 151200Z AUTO 30005G00KT 10SM OVC036 00/M02 A3029 RMK T00001020 MADISHF
6:55 AMWNW 710 OVC037
% 30.29
KDSM 151155Z AUTO 30006G00KT 10SM OVC037 00/M02 A3029 RMK T00001020 MADISHF
6:54 AMWNW 710 BKN037
3228 35 30 % 30.290
KDSM 151154Z 30006KT 10SM BKN037 00/M02 A3029 RMK AO2 SLP265 70004 T00001022 10017 21011 53008
6:50 AMNW 810 OVC037
% 30.28
KDSM 151150Z AUTO 31007G00KT 10SM OVC037 00/M02 A3028 RMK T00001020 MADISHF
6:45 AMWNW 710 OVC037
% 30.28
KDSM 151145Z AUTO 30006G00KT 10SM OVC037 00/M02 A3028 RMK T00001020 MADISHF
6:40 AMWNW 710 OVC037
% 30.28
KDSM 151140Z AUTO 30006G00KT 10SM OVC037 00/M02 A3028 RMK T00001020 MADISHF
6:35 AMNW 710 OVC037
% 30.28
KDSM 151135Z AUTO 31006G00KT 10SM OVC037 00/M02 A3028 RMK T00001020 MADISHF
6:30 AMNW 710 BKN037
% 30.28
KDSM 151130Z AUTO 31006G00KT 10SM BKN037 00/M02 A3028 RMK T00001020 MADISHF
6:25 AMNW 710 BKN037
% 30.28
KDSM 151125Z AUTO 31006G00KT 10SM BKN037 M01/M02 A3028 RMK T10101020 MADISHF
6:20 AMWNW 810 BKN037
% 30.28
KDSM 151120Z AUTO 30007G00KT 10SM BKN037 M01/M02 A3028 RMK T10101020 MADISHF
6:15 AMWNW 810 SCT037
% 30.28
KDSM 151115Z AUTO 30007G00KT 10SM SCT037 M01/M02 A3028 RMK T10101020 MADISHF
6:10 AMWNW 910 FEW037
% 30.27
KDSM 151110Z AUTO 30008G00KT 10SM FEW037 M01/M02 A3027 RMK T10101020 MADISHF
6:05 AMWNW 910 CLR
% 30.27
KDSM 151105Z AUTO 29008G00KT 10SM CLR M01/M03 A3027 RMK T10101030 MADISHF
6:00 AMWNW 710 CLR
% 30.27
KDSM 151100Z AUTO 30006G00KT 10SM CLR M01/M03 A3027 RMK T10101030 MADISHF
5:55 AMWNW 710 CLR
% 30.27
KDSM 151055Z AUTO 29006G00KT 10SM CLR M01/M02 A3027 RMK T10101020 MADISHF
5:54 AMWNW 710 FEW035
FEW120
302823 92% 30.270
KDSM 151054Z 29006KT 10SM FEW035 FEW120 M01/M02 A3027 RMK AO2 SLP261 T10111022
5:50 AMWNW 710 CLR
% 30.27
KDSM 151050Z AUTO 29006G00KT 10SM CLR M01/M02 A3027 RMK T10101020 MADISHF
5:45 AMWNW 810 CLR
% 30.27
KDSM 151045Z AUTO 29007G00KT 10SM CLR M01/M02 A3027 RMK T10101020 MADISHF
5:40 AMWNW 610 CLR
% 30.27
KDSM 151040Z AUTO 29005G00KT 10SM CLR M01/M02 A3027 RMK T10101020 MADISHF
5:35 AMWNW 710 CLR
% 30.27
KDSM 151035Z AUTO 30006G00KT 10SM CLR M01/M02 A3027 RMK T10101020 MADISHF
5:30 AMWNW 710 CLR
% 30.27
KDSM 151030Z AUTO 30006G00KT 10SM CLR M01/M02 A3027 RMK T10101020 MADISHF
5:25 AMWNW 710 CLR
% 30.26
KDSM 151025Z AUTO 30006G00KT 10SM CLR M01/M02 A3026 RMK T10101020 MADISHF
5:20 AMWNW 710 CLR
% 30.26
KDSM 151020Z AUTO 30006G00KT 10SM CLR M01/M02 A3026 RMK T10101020 MADISHF
5:15 AMNW 710 CLR
% 30.26
KDSM 151015Z AUTO 31006G00KT 10SM CLR M01/M02 A3026 RMK T10101020 MADISHF
5:10 AMWNW 710 CLR
% 30.26
KDSM 151010Z AUTO 30006G00KT 10SM CLR M01/M02 A3026 RMK T10101020 MADISHF
5:05 AMWNW 710 FEW041
% 30.26
KDSM 151005Z AUTO 29006G00KT 10SM FEW041 M01/M02 A3026 RMK T10101020 MADISHF
5:00 AMWNW 710 CLR
% 30.26
KDSM 151000Z AUTO 30006G00KT 10SM CLR M01/M02 A3026 RMK T10101020 MADISHF
4:55 AMWNW 710 CLR
% 30.26
KDSM 150955Z AUTO 30006G00KT 10SM CLR M01/M02 A3026 RMK T10101020 MADISHF
4:54 AMWNW 810 FEW040
FEW150
312823 89% 30.260
KDSM 150954Z 30007KT 10SM FEW040 FEW150 M01/M02 A3026 RMK AO2 SLP257 T10061022
4:50 AMNW 810 FEW041
% 30.26
KDSM 150950Z AUTO 31007G00KT 10SM FEW041 00/M02 A3026 RMK T00001020 MADISHF
4:45 AMWNW 810 SCT041
% 30.26
KDSM 150945Z AUTO 30007G00KT 10SM SCT041 M01/M02 A3026 RMK T10101020 MADISHF
4:40 AMWNW 810 SCT041
% 30.26
KDSM 150940Z AUTO 30007G00KT 10SM SCT041 00/M02 A3026 RMK T00001020 MADISHF
4:35 AMNW 810 BKN041
% 30.26
KDSM 150935Z AUTO 31007G00KT 10SM BKN041 00/M02 A3026 RMK T00001020 MADISHF
4:30 AMNW 910 BKN041
% 30.26
KDSM 150930Z AUTO 31008G00KT 10SM BKN041 00/M02 A3026 RMK T00001020 MADISHF
4:25 AMWNW 910 BKN041
% 30.26
KDSM 150925Z AUTO 30008G00KT 10SM BKN041 00/M02 A3026 RMK T00001020 MADISHF
4:20 AMWNW 810 BKN041
% 30.26
KDSM 150920Z AUTO 30007G00KT 10SM BKN041 00/M02 A3026 RMK T00001020 MADISHF
4:15 AMWNW 810 SCT041
% 30.26
KDSM 150915Z AUTO 30007G00KT 10SM SCT041 00/M02 A3026 RMK T00001020 MADISHF
4:10 AMWNW 910 FEW041
% 30.26
KDSM 150910Z AUTO 30008G00KT 10SM FEW041 00/M02 A3026 RMK T00001020 MADISHF
4:05 AMWNW 910 CLR
% 30.26
KDSM 150905Z AUTO 30008G00KT 10SM CLR 00/M02 A3026 RMK T00001020 MADISHF
4:00 AMNW 910 CLR
% 30.26
KDSM 150900Z AUTO 31008G00KT 10SM CLR 00/M02 A3026 RMK T00001020 MADISHF
3:55 AMNW 1010 CLR
% 30.26
KDSM 150855Z AUTO 31009G00KT 10SM CLR 00/M02 A3026 RMK T00001020 MADISHF
3:54 AMNW 910 SCT160
3228 % 30.260
KDSM 150854Z 31008KT 10SM SCT160 00/M02 A3026 RMK AO2 SLP255 T00001022 50004
3:50 AMWNW 810 CLR
% 30.26
KDSM 150850Z AUTO 30007G00KT 10SM CLR 01/M02 A3026 RMK T00101020 MADISHF
3:45 AMNW 910 CLR
% 30.26
KDSM 150845Z AUTO 31008G00KT 10SM CLR 00/M02 A3026 RMK T00001020 MADISHF
3:40 AMWNW 910 CLR
% 30.26
KDSM 150840Z AUTO 30008G00KT 10SM CLR 01/M02 A3026 RMK T00101020 MADISHF
3:35 AMNW 1010 CLR
% 30.27
KDSM 150835Z AUTO 31009G00KT 10SM CLR 01/M02 A3027 RMK T00101020 MADISHF
3:30 AMNW 910 FEW120
% 30.26
KDSM 150830Z AUTO 31008G00KT 10SM FEW120 01/M02 A3026 RMK T00101020 MADISHF
3:25 AMNW 1010 SCT120
% 30.27
KDSM 150825Z AUTO 31009G00KT 10SM SCT120 01/M02 A3027 RMK T00101020 MADISHF
3:20 AMWNW 910 SCT120
% 30.26
KDSM 150820Z AUTO 30008G00KT 10SM SCT120 01/M02 A3026 RMK T00101020 MADISHF
3:15 AMNW 1010 BKN120
% 30.26
KDSM 150815Z AUTO 31009G00KT 10SM BKN120 01/M02 A3026 RMK T00101020 MADISHF
3:10 AMNW 1310 BKN120
% 30.26
KDSM 150810Z AUTO 31011G00KT 10SM BKN120 01/M02 A3026 RMK T00101020 MADISHF
3:05 AMNW 1010 BKN120
% 30.26
KDSM 150805Z AUTO 31009G00KT 10SM BKN120 01/M02 A3026 RMK T00101020 MADISHF
3:00 AMNW 1010 BKN120
% 30.27
KDSM 150800Z AUTO 31009G00KT 10SM BKN120 01/M02 A3027 RMK T00101020 MADISHF
2:55 AMNW 1010 BKN120
% 30.27
KDSM 150755Z AUTO 31009G00KT 10SM BKN120 01/M02 A3027 RMK T00101020 MADISHF
2:54 AMNW 1210 OVC120
342926 81% 30.270
KDSM 150754Z 31010KT 10SM OVC120 01/M02 A3027 RMK AO2 SLP259 T00111017
2:50 AMWNW 1010 SCT120
% 30.27
KDSM 150750Z AUTO 30009G00KT 10SM SCT120 01/M02 A3027 RMK T00101020 MADISHF
2:45 AMNW 1010 FEW120
% 30.27
KDSM 150745Z AUTO 31009G00KT 10SM FEW120 01/M02 A3027 RMK T00101020 MADISHF
2:40 AMNW 910 CLR
% 30.27
KDSM 150740Z AUTO 31008G00KT 10SM CLR 01/M02 A3027 RMK T00101020 MADISHF
2:35 AMNW 1010 CLR
% 30.26
KDSM 150735Z AUTO 31009G00KT 10SM CLR 01/M02 A3026 RMK T00101020 MADISHF
2:30 AMNW 910 CLR
% 30.26
KDSM 150730Z AUTO 31008G00KT 10SM CLR 01/M02 A3026 RMK T00101020 MADISHF
2:25 AMNW 910 CLR
% 30.26
KDSM 150725Z AUTO 31008G00KT 10SM CLR 01/M02 A3026 RMK T00101020 MADISHF
2:20 AMNW 1010 FEW110
% 30.27
KDSM 150720Z AUTO 31009G00KT 10SM FEW110 01/M02 A3027 RMK T00101020 MADISHF
2:15 AMNW 1010 SCT110
% 30.26
KDSM 150715Z AUTO 31009G00KT 10SM SCT110 01/M02 A3026 RMK T00101020 MADISHF
2:10 AMNW 910 SCT110
% 30.26
KDSM 150710Z AUTO 32008G00KT 10SM SCT110 01/M02 A3026 RMK T00101020 MADISHF
2:05 AMNW 1010 FEW042
BKN110
% 30.26
KDSM 150705Z AUTO 32009G00KT 10SM FEW042 BKN110 01/M02 A3026 RMK T00101020 MADISHF
2:00 AMNW 1210 FEW042
BKN110
% 30.27
KDSM 150700Z AUTO 32010G00KT 10SM FEW042 BKN110 01/M01 A3027 RMK T00101010 MADISHF
1:55 AMNW 1210 SCT042
OVC110
% 30.26
KDSM 150655Z AUTO 32010G00KT 10SM SCT042 OVC110 01/M01 A3026 RMK T00101010 MADISHF
1:54 AMNW 1210 SCT042
OVC110
343026 85% 30.270
KDSM 150654Z 32010KT 10SM SCT042 OVC110 01/M01 A3027 RMK AO2 SLP258 T00111011
1:50 AMNW 1010 SCT042
OVC110
% 30.26
KDSM 150650Z AUTO 31009G00KT 10SM SCT042 OVC110 01/M01 A3026 RMK T00101010 MADISHF
1:45 AMNW 910 BKN042
OVC110
% 30.26
KDSM 150645Z AUTO 32008G00KT 10SM BKN042 OVC110 01/M01 A3026 RMK T00101010 MADISHF
1:40 AMNW 1010 BKN042
OVC110
% 30.25
KDSM 150640Z AUTO 32009G00KT 10SM BKN042 OVC110 02/M01 A3025 RMK T00201010 MADISHF
1:35 AMNW 910 BKN039
OVC110
% 30.25
KDSM 150635Z AUTO 32008G00KT 10SM BKN039 OVC110 02/M01 A3025 RMK T00201010 MADISHF
1:30 AMNW 1010 BKN039
OVC110
% 30.25
KDSM 150630Z AUTO 32009G00KT 10SM BKN039 OVC110 02/M01 A3025 RMK T00201010 MADISHF
1:25 AMNNW 1210 BKN039
OVC110
% 30.25
KDSM 150625Z AUTO 33010G00KT 10SM BKN039 OVC110 02/M01 A3025 RMK T00201010 MADISHF
1:20 AMNW 1210 BKN042
OVC110
% 30.25
KDSM 150620Z AUTO 31010G00KT 10SM BKN042 OVC110 02/M01 A3025 RMK T00201010 MADISHF
1:15 AMNW 910 FEW035
BKN042
OVC110
% 30.25
KDSM 150615Z AUTO 32008G00KT 10SM FEW035 BKN042 OVC110 02/M01 A3025 RMK T00201010 MADISHF
1:10 AMNW 1010 FEW033
SCT042
OVC110
% 30.25
KDSM 150610Z AUTO 31009G00KT 10SM FEW033 SCT042 OVC110 02/M01 A3025 RMK T00201010 MADISHF
1:05 AMNNW 1310 SCT042
OVC110
% 30.25
KDSM 150605Z AUTO 33011G00KT 10SM SCT042 OVC110 02/M01 A3025 RMK T00201010 MADISHF
1:00 AMNNW 1210 FEW042
OVC110
% 30.24
KDSM 150600Z AUTO 33010G00KT 10SM FEW042 OVC110 02/M01 A3023 RMK T00201010 MADISHF
12:55 AMNW 1010 OVC110
% 30.25
KDSM 150555Z AUTO 32009G00KT 10SM OVC110 02/M01 A3025 RMK T00201010 MADISHF
12:54 AMNW 1010 FEW040
OVC100
353127 35 34 85% 30.2500.0001
KDSM 150554Z 32009KT 10SM FEW040 OVC100 02/M01 A3025 RMK AO2 SLP251 60000 T00171006 10017 20011 400720011 51018
12:50 AMNW 1010 OVC100
% 30.25
KDSM 150550Z AUTO 32009G00KT 10SM OVC100 02/M01 A3025 RMK T00201010 MADISHF
12:45 AMNW 810 OVC100
% 30.25
KDSM 150545Z AUTO 32007G00KT 10SM OVC100 02/M01 A3025 RMK T00201010 MADISHF
12:40 AMNW 1010 OVC100
% 30.25
KDSM 150540Z AUTO 31009G00KT 10SM OVC100 02/M01 A3025 RMK T00201010 MADISHF
12:35 AMNW 1010 FEW037
OVC100
% 30.25
KDSM 150535Z AUTO 31009G00KT 10SM FEW037 OVC100 02/M01 A3025 RMK T00201010 MADISHF
12:30 AMNW 910 FEW037
OVC110
% 30.26
KDSM 150530Z AUTO 31008G00KT 10SM FEW037 OVC110 02/M01 A3026 RMK T00201010 MADISHF
12:25 AMNW 910 FEW037
OVC100
% 30.25
KDSM 150525Z AUTO 31008G00KT 10SM FEW037 OVC100 02/M01 A3025 RMK T00201010 MADISHF
12:20 AMNW 910 FEW037
OVC100
% 30.25
KDSM 150520Z AUTO 31008G00KT 10SM FEW037 OVC100 02/M01 A3025 RMK T00201010 MADISHF
12:15 AMNW 810 SCT037
OVC100
% 30.24
KDSM 150515Z AUTO 32007G00KT 10SM SCT037 OVC100 02/M01 A3023 RMK T00201010 MADISHF
12:10 AMNW 910 SCT037
OVC100
% 30.24
KDSM 150510Z AUTO 31008G00KT 10SM SCT037 OVC100 02/M01 A3023 RMK T00201010 MADISHF
12:05 AMNW 910 FEW037
OVC100
% 30.24
KDSM 150505Z AUTO 31008G00KT 10SM FEW037 OVC100 02/M01 A3023 RMK T00201010 MADISHF
12:00 AMNW 810 OVC100
% 30.24
KDSM 150500Z AUTO 31007G00KT 10SM OVC100 02/M01 A3023 RMK T00201010 MADISHF

Data Notes